Date,TemperatureHighF,TemperatureAvgF,TemperatureLowF,DewpointHighF,DewpointAvgF,DewpointLowF,HumidityHigh,HumidityAvg,HumidityLow,PressureMaxIn,PressureMinIn,WindSpeedMaxMPH,WindSpeedAvgMPH,GustSpeedMaxMPH,PrecipitationSumIn
2013-8-1,81.3,70.4,61.8,68.1,64.3,60.9,100,83,56,30.04,29.88,9,0,16,0.00
2013-8-2,84.7,71.9,62.3,71.3,65.7,61.3,100,83,50,29.88,29.77,11,0,0,0.00
2013-8-3,78.3,71.4,67.3,67.4,65.8,63.6,96,83,66,29.86,29.77,14,1,14,0.00
2013-8-4,77.4,67.5,59.0,65.1,60.2,56.8,95,78,54,29.86,29.75,11,0,0,0.00
2013-8-5,79.0,65.6,55.1,57.6,52.4,44.5,95,67,32,30.03,29.85,14,1,14,0.00
2013-8-6,75.6,63.8,49.8,60.0,53.9,48.6,97,73,46,30.14,30.02,5,0,0,0.00
2013-8-7,78.0,66.5,56.1,64.2,58.2,53.7,100,77,45,30.17,30.11,9,0,0,0.00
2013-8-8,81.5,71.7,62.2,72.4,66.6,56.4,98,85,71,30.13,30.00,14,1,14,0.00
2013-8-9,74.5,73.3,71.9,74.1,72.2,70.3,100,96,92,30.03,29.75,22,1,22,0.00
2013-8-10,85.7,75.8,65.2,73.7,64.5,55.1,99,71,43,29.99,29.77,15,1,15,0.00
2013-8-11,81.3,67.5,54.5,61.6,56.9,51.3,98,71,40,30.06,29.98,9,0,0,0.00
2013-8-12,84.0,71.0,60.5,66.2,62.7,59.4,98,78,45,30.02,29.91,11,1,0,0.00
2013-8-13,72.4,67.8,63.4,69.2,65.7,62.8,98,93,80,29.91,29.67,3,0,0,0.00
2013-8-14,76.5,68.1,61.4,64.2,57.3,52.6,99,71,46,29.94,29.64,17,2,17,0.00
2013-8-15,79.5,66.4,54.4,58.1,53.6,47.3,93,67,37,30.10,29.94,12,1,14,0.00
2013-8-16,80.8,67.7,55.8,60.9,56.8,53.8,96,71,42,30.18,30.09,12,1,12,0.00
2013-8-17,75.2,66.3,56.9,62.8,59.8,55.2,97,81,57,30.26,30.18,7,0,0,0.00
2013-8-18,79.9,68.0,58.2,67.3,62.3,57.6,99,83,56,30.26,30.07,5,0,0,0.00
2013-8-19,83.8,70.7,59.0,65.4,61.3,56.6,94,74,42,30.08,29.93,13,1,13,0.00
2013-8-20,83.7,73.8,64.5,71.7,65.7,62.1,92,77,55,30.07,29.95,5,0,0,0.00
2013-8-21,89.5,75.7,63.6,69.6,65.7,61.9,95,74,45,30.12,30.01,7,0,0,0.00
2013-8-22,86.0,73.7,66.6,74.1,69.2,64.5,97,87,62,30.03,29.81,13,1,13,0.00
2013-8-23,75.7,69.6,60.1,70.3,62.8,57.4,98,80,59,30.08,29.80,13,1,13,0.00
2013-8-24,72.4,63.7,53.0,60.0,53.4,43.4,91,72,38,30.32,30.08,9,0,0,0.00
2013-8-25,79.3,66.3,52.5,60.6,54.5,49.1,95,69,41,30.34,30.18,9,0,0,0.00
2013-8-26,81.1,71.6,65.0,68.4,64.1,57.2,86,78,60,30.19,29.86,14,1,14,0.00
2013-8-27,75.0,69.8,65.1,70.9,68.2,64.7,99,95,83,29.87,29.81,8,0,0,0.00
2013-8-28,76.5,66.8,62.4,69.9,65.4,62.4,100,95,79,29.95,29.84,10,0,0,0.00
2013-8-29,65.0,63.5,60.7,64.8,62.5,58.9,100,97,91,30.05,29.93,9,0,0,0.00
2013-8-30,80.7,68.7,60.5,69.6,64.4,59.1,96,87,67,30.00,29.82,13,1,13,0.00
2013-8-31,80.5,73.6,68.1,74.8,71.1,67.3,99,92,81,29.83,29.78,14,1,14,0.00